Etusivu
METAR-TAF:

METAR-TAF

Lentoasemat :

Lytton, Brittiläinen Kolumbia, Kanada

Leveyspiiri: 50-14N, Pituuspiiri: 121-35W, korkeus merenpinnasta: 229 m

Tämänhetkinen sää

Tämä raportti tehtiin 1 tunti ja 49 minuuttia sitten, kello 13.00 UTC
Tuuli 2 kn pohjoisesta
Lämpötila 2°C
Kosteus 93%
Ilmanpaine 1026 hPa
Näkyvyys: 14.5 km
selkeää

METAR: CWLY 251300Z AUTO 01002KT 9SM CLR 02/01 A3031 RMK SLP271

Aika: 07:49 (14:49 UTC)


TAF: puuttuu

Säähavainnot ja -ennusteet yli 4000 lentoasemalta (METAR- ja TAF-raportit).

Käytössä olevat sääasemat on merkitty karttaan keltaisilla ja punaisilla pisteillä.

Aseta hiiri pisteen päälle nähdäksesi sääaseman nimen.

Klikkaa sitten nähdäksesi säähavainnot ja -ennusteet.

Kartan vaihtaminen: klikkaa mustalla rastilla varustettuja vihreitä pisteitä, niin voit zoomata sisään; viivalla varustettua vihreää pistettä, niin voit zoomata ulos tai vihreitä nuolia, niin pääset viereisille kartoille.


METAR-TAF: